Terminal Aerodrome Forecast
Issued by NWS Amarillo, TX

Home | Current Version | Previous Version | Text Only | Print | Product List | Glossary On
Versions: 1 2 3 4 5 6 7 8 9 10 11 12 13 14 15 16 17 18 19 20 21 22
000
FTUS44 KAMA 271000 AAA
TAFAMA
TAF AMD
KAMA 271030Z 2711/2806 VRB06KT P6SM VCSH FEW070 BKN110
      TEMPO 2711/2714 -SHRA SCT005 BKN070
     FM271400 18014G24KT P6SM SCT070 BKN250
     FM272100 16014KT P6SM VCTS BKN070CB
     FM280300 20010KT P6SM BKN070=

USA.gov is the U.S. government's official web portal to all federal, state and local government web resources and services.